createdAt,value
2023-01-15T00:00:41.248Z,7.12
2023-01-15T00:11:06.284Z,7.12
2023-01-15T00:21:13.914Z,7.14
2023-01-15T00:31:18.769Z,7.09
2023-01-15T00:41:22.369Z,7.08
2023-01-15T00:51:26.080Z,7.10
2023-01-15T01:01:30.181Z,7.13
2023-01-15T01:11:34.761Z,7.12
2023-01-15T01:21:39.909Z,7.14
2023-01-15T01:31:43.944Z,7.16
2023-01-15T01:41:48.296Z,7.12
2023-01-15T01:52:07.375Z,7.19
2023-01-15T02:02:11.346Z,7.33
2023-01-15T02:13:11.159Z,7.38
2023-01-15T02:23:34.628Z,7.40
2023-01-15T02:33:58.588Z,7.37
2023-01-15T02:44:05.592Z,7.38
2023-01-15T02:54:14.803Z,7.32
2023-01-15T03:04:30.904Z,7.38
2023-01-15T03:14:44.795Z,7.47
2023-01-15T03:25:27.952Z,7.47
2023-01-15T03:35:50.183Z,7.43
2023-01-15T03:46:15.522Z,7.44
2023-01-15T03:56:32.707Z,7.48
2023-01-15T04:06:40.330Z,7.46
2023-01-15T04:16:44.119Z,7.46
2023-01-15T04:26:49.574Z,7.50
2023-01-15T04:36:53.486Z,7.64
2023-01-15T04:46:57.897Z,7.71
2023-01-15T04:57:01.498Z,7.70
2023-01-15T05:07:06.061Z,7.69
2023-01-15T05:17:09.633Z,7.76
2023-01-15T05:27:13.186Z,7.80
2023-01-15T05:37:16.708Z,7.89
2023-01-15T05:47:22.192Z,7.92
2023-01-15T05:57:25.791Z,8.03
2023-01-15T06:07:29.437Z,8.15
2023-01-15T06:17:33.041Z,8.19
2023-01-15T06:27:36.618Z,8.14
2023-01-15T06:37:40.242Z,8.23
2023-01-15T06:47:43.938Z,8.21
2023-01-15T06:57:47.467Z,8.11
2023-01-15T07:07:51.207Z,7.96
2023-01-15T07:17:56.160Z,7.84
2023-01-15T07:28:04.029Z,7.82
2023-01-15T07:38:07.627Z,7.82
2023-01-15T07:48:30.388Z,7.74
2023-01-15T07:58:33.935Z,7.74
2023-01-15T08:08:37.709Z,7.82
2023-01-15T08:18:41.652Z,7.75
2023-01-15T08:28:45.327Z,7.58
2023-01-15T08:38:50.624Z,7.61
2023-01-15T08:48:54.936Z,7.60
2023-01-15T08:58:58.538Z,7.49
2023-01-15T09:09:03.044Z,7.46
2023-01-15T09:19:08.316Z,7.62
2023-01-15T09:29:12.137Z,7.75
2023-01-15T09:39:15.785Z,7.85
2023-01-15T09:49:19.365Z,7.91
2023-01-15T09:59:35.395Z,7.88
2023-01-15T10:09:43.400Z,7.98
2023-01-15T10:19:47.791Z,8.11
2023-01-15T10:30:37.808Z,8.32
2023-01-15T10:40:59.960Z,8.47
2023-01-15T10:51:20.769Z,8.60
2023-01-15T11:01:28.065Z,8.67
2023-01-15T11:12:03.476Z,8.77
2023-01-15T11:22:13.806Z,8.86
2023-01-15T11:32:23.708Z,8.91
2023-01-15T11:42:47.461Z,8.97
2023-01-15T11:52:55.965Z,9.04
2023-01-15T12:03:12.320Z,9.18
2023-01-15T12:13:32.156Z,9.23
2023-01-15T12:23:57.434Z,9.37
2023-01-15T12:34:03.876Z,9.45
2023-01-15T12:44:30.414Z,9.54
2023-01-15T12:54:51.786Z,9.48
2023-01-15T13:05:27.751Z,9.34
2023-01-15T13:15:39.290Z,9.26
2023-01-15T13:26:14.408Z,9.10
2023-01-15T13:36:29.144Z,8.92
2023-01-15T13:46:32.898Z,8.68
2023-01-15T13:56:40.166Z,8.29
2023-01-15T14:07:26.415Z,8.13
2023-01-15T14:17:52.035Z,8.10
2023-01-15T14:28:22.322Z,8.06
2023-01-15T14:38:28.502Z,7.81
2023-01-15T14:48:37.044Z,7.75
2023-01-15T14:59:04.688Z,7.72
2023-01-15T15:09:13.979Z,7.66
2023-01-15T15:19:35.302Z,7.63
2023-01-15T15:29:41.997Z,7.83
2023-01-15T15:40:02.886Z,7.75
2023-01-15T15:50:07.172Z,7.56
2023-01-15T16:00:32.249Z,7.58
2023-01-15T16:10:36.322Z,7.74
2023-01-15T16:20:42.097Z,7.90
2023-01-15T16:30:46.142Z,7.83
2023-01-15T16:40:50.705Z,7.41
2023-01-15T16:50:54.556Z,7.58
2023-01-15T17:00:58.828Z,7.54
2023-01-15T17:11:04.921Z,7.34
2023-01-15T17:21:18.639Z,7.38
2023-01-15T17:31:29.983Z,7.45
2023-01-15T17:41:34.140Z,7.34
2023-01-15T17:51:38.319Z,7.10
2023-01-15T18:02:04.755Z,6.94
2023-01-15T18:12:08.704Z,6.83
2023-01-15T18:22:14.404Z,6.82
2023-01-15T18:32:18.298Z,6.73
2023-01-15T18:42:46.595Z,6.61
2023-01-15T18:52:50.743Z,6.42
2023-01-15T19:02:54.592Z,6.43
2023-01-15T19:12:59.027Z,6.33
2023-01-15T19:23:06.835Z,6.34
2023-01-15T19:33:11.304Z,6.23
2023-01-15T19:43:35.726Z,6.13
2023-01-15T19:53:41.001Z,6.14
2023-01-15T20:03:47.012Z,6.20
2023-01-15T20:13:53.990Z,6.23
2023-01-15T20:23:59.249Z,6.31
2023-01-15T20:34:02.997Z,6.40
2023-01-15T20:44:31.594Z,6.44
2023-01-15T20:54:35.376Z,6.44
2023-01-15T21:04:44.318Z,6.41
2023-01-15T21:14:49.141Z,6.24
2023-01-15T21:24:52.769Z,6.23
2023-01-15T21:34:56.435Z,6.15
2023-01-15T21:45:05.107Z,6.02
2023-01-15T21:55:10.677Z,5.85
2023-01-15T22:05:16.546Z,5.70
2023-01-15T22:15:20.439Z,5.51
2023-01-15T22:25:24.549Z,5.34
2023-01-15T22:35:29.394Z,5.30
2023-01-15T22:45:35.038Z,5.23
2023-01-15T22:55:38.815Z,5.16
2023-01-15T23:05:43.271Z,5.08
2023-01-15T23:15:55.675Z,5.06
2023-01-15T23:26:04.360Z,5.01
2023-01-15T23:36:10.070Z,4.97
2023-01-15T23:46:36.828Z,4.90
2023-01-15T23:56:42.402Z,4.76
